Flight Track Log - Related Links

Times and Time Zones

All times are in EDT time to prevent confusion due to time zone crossing. See the ASQ4874 flight status page for this flight to view local times or setup timezone preferences in your user account.

Time Position Orientation Groundspeed Altitude Reporting Facility
EDT Latitude Longitude Course Direction KTS MPH feet Rate Location/Type
Mon 05:46:52 AM 32.9319 -80.1403 241° Southwest 242 278 3,600  Level Jacksonville Center
Mon 05:47:52 AM 32.8961 -80.2183 241° Southwest 259 298 6,800 2,800 Climbing Jacksonville Center
Mon 05:48:52 AM 32.8831 -80.2953 259° West 272 313 9,200 1,600 Climbing Jacksonville Center
Mon 05:49:52 AM 32.8789 -80.4017 267° West 295 339 10,000 1,400 Climbing Jacksonville Center
Mon 05:50:52 AM 32.8667 -80.5183 263° West 332 382 12,000 1,900 Climbing Jacksonville Center
Mon 05:51:52 AM 32.8522 -80.6422 262° West 367 422 13,800 2,100 Climbing Jacksonville Center
Mon 05:52:52 AM 32.8375 -80.7589 261° West 373 429 16,200 2,150 Climbing Jacksonville Center
Mon 05:53:52 AM 32.8228 -80.8778 262° West 368 423 18,100 1,811 Climbing Jacksonville Center
Mon 05:55:31 AM 32.7983 -81.0686 261° West 368 423 21,000 1,660 Climbing Atlanta Center
Mon 05:56:31 AM 32.7822 -81.1900 261° West 373 429 22,500 1,450 Climbing Atlanta Center
Mon 05:57:31 AM 32.7664 -81.3117 261° West 373 429 23,900 1,350 Climbing Atlanta Center
Mon 05:58:31 AM 32.7503 -81.4356 261° West 373 429 25,200 1,050 Climbing Atlanta Center
Mon 05:59:31 AM 32.7339 -81.5597 261° West 373 429 26,000 400 Climbing Atlanta Center
Mon 06:00:31 AM 32.7239 -81.6908 265° West 389 448 26,000  Level Atlanta Center
Mon 06:01:31 AM 32.7556 -81.8133 287° West 389 448 26,000  Level Atlanta Center
Mon 06:02:31 AM 32.7892 -81.9533 286° West 389 448 26,000  Level Atlanta Center
Mon 06:03:31 AM 32.8183 -82.0739 286° West 389 448 26,000  Level Atlanta Center
Mon 06:04:31 AM 32.8475 -82.1992 286° West 389 448 26,000  Level Atlanta Center
Mon 06:05:31 AM 32.8764 -82.3222 286° West 394 453 26,000 -500 Level Atlanta Center
Mon 06:06:31 AM 32.9053 -82.4481 285° West 394 453 25,000 -750 Descending Atlanta Center
Mon 06:07:31 AM 32.9317 -82.5711 284° West 394 453 24,500 -500 Descending Atlanta Center
Mon 06:08:31 AM 32.9622 -82.6894 287° West 389 448 24,000 -800 Descending Atlanta Center
Mon 06:09:31 AM 32.9886 -82.8131 284° West 389 448 22,900 -1,300 Descending Atlanta Center
Mon 06:10:31 AM 33.0169 -82.9364 285° West 389 448 21,400 -1,300 Descending Atlanta Center
Mon 06:11:31 AM 33.0453 -83.0575 286° West 389 448 20,300 -1,250 Descending Atlanta Center
Mon 06:12:31 AM 33.0731 -83.1786 285° West 389 448 18,900 -1,450 Descending Atlanta Center
Mon 06:13:31 AM 33.0989 -83.2975 285° West 377 434 17,400 -1,200 Descending Atlanta Center
Mon 06:14:31 AM 33.1247 -83.3964 287° West 364 419 16,500 -950 Descending Atlanta Center
Mon 06:15:31 AM 33.1481 -83.5128 283° West 354 407 15,500 -1,000 Descending Atlanta Center
Mon 06:16:31 AM 33.1714 -83.6244 284° West 354 407 14,500 -750 Descending Atlanta Center
Mon 06:17:31 AM 33.1969 -83.7358 285° West 354 407 14,000 -250 Descending Atlanta Center
Mon 06:18:31 AM 33.2367 -83.8375 295° West 349 402 14,000 -450 Level Atlanta Center
Mon 06:19:31 AM 33.2975 -83.9269 309° West 343 395 13,100 -950 Descending Atlanta Center
Mon 06:20:31 AM 33.3622 -84.0264 308° West 343 395 12,100 -550 Descending Atlanta Center
Mon 06:21:31 AM 33.4206 -84.1086 310° West 343 395 12,000 -50 Descending Atlanta Center
Mon 06:22:31 AM 33.4747 -84.1908 308° West 333 383 12,000  Level Atlanta Center
Mon 06:23:31 AM 33.5228 -84.2606 310° West 294 338 12,000 -300 Level Atlanta Center
Mon 06:24:31 AM 33.5350 -84.3353 281° West 247 284 11,400 -1,512 Descending Atlanta Center
Mon 06:25:34 AM 33.5333 -84.4167 269° West 241 277 8,900 -2,419 Descending Atlanta TRACON
Mon 06:26:40 AM 33.5333 -84.5000 270° West 227 261 6,200 -2,273 Descending Atlanta TRACON
Mon 06:27:46 AM 33.5333 -84.5833 270° West 221 254 3,900 -1,600 Descending Atlanta TRACON
Mon 06:28:40 AM 33.5833 -84.6000 344° North 191 220 3,000 -684 Descending Atlanta TRACON
Mon 06:29:40 AM 33.6167 -84.5667 40° Northeast 175 201 2,600 -368 Descending Atlanta TRACON
Mon 06:30:34 AM 33.6333 -84.5167 68° East 160 184 2,300 -556 Descending Atlanta TRACON
Mon 06:31:28 AM 33.6333 -84.4833 90° East 131 151 1,600 -778 Descending Atlanta TRACON
Mon 06:33:00 AM 33.6367 -84.4279 103° East  Level Estimated
Mon 06:40:00 AM 33.6367 -84.4279 103° East  Level Estimated
Mon 06:41:00 AM 33.6367 -84.4279 103° East  Level Estimated

Login

Don't have an account? Register now (free) for customized features, flight alerts, and more!